createdAt,value
2018-11-29T00:00:39.847Z,1.80
2018-11-29T00:03:09.609Z,1.80
2018-11-29T00:05:38.627Z,1.80
2018-11-29T00:08:07.376Z,1.80
2018-11-29T00:10:35.908Z,1.80
2018-11-29T00:13:05.024Z,1.70
2018-11-29T00:15:33.984Z,1.70
2018-11-29T00:18:02.553Z,1.70
2018-11-29T00:20:31.189Z,1.70
2018-11-29T00:22:59.759Z,1.70
2018-11-29T00:25:28.339Z,1.70
2018-11-29T00:27:56.903Z,1.70
2018-11-29T00:30:26.031Z,1.60
2018-11-29T00:32:55.513Z,1.60
2018-11-29T00:35:24.058Z,1.60
2018-11-29T00:37:52.612Z,1.60
2018-11-29T00:40:22.278Z,1.50
2018-11-29T00:42:50.886Z,1.50
2018-11-29T00:45:20.417Z,1.50
2018-11-29T00:47:49.511Z,1.50
2018-11-29T00:50:18.695Z,1.50
2018-11-29T00:52:48.141Z,1.50
2018-11-29T00:55:17.905Z,1.40
2018-11-29T00:57:46.491Z,1.50
2018-11-29T01:00:19.068Z,1.50
2018-11-29T01:02:47.762Z,1.50
2018-11-29T01:05:16.346Z,1.50
2018-11-29T01:07:44.900Z,1.50
2018-11-29T01:10:15.569Z,1.50
2018-11-29T01:12:44.804Z,1.50
2018-11-29T01:15:18.128Z,1.50
2018-11-29T01:17:47.749Z,1.50
2018-11-29T01:20:17.637Z,1.40
2018-11-29T01:22:46.214Z,1.50
2018-11-29T01:25:15.471Z,1.50
2018-11-29T01:27:45.279Z,1.50
2018-11-29T01:30:15.902Z,1.50
2018-11-29T01:32:44.757Z,1.60
2018-11-29T01:35:15.510Z,1.60
2018-11-29T01:37:44.029Z,1.60
2018-11-29T01:40:18.567Z,1.60
2018-11-29T01:42:48.622Z,1.60
2018-11-29T01:45:17.255Z,1.60
2018-11-29T01:47:46.048Z,1.60
2018-11-29T01:50:15.492Z,1.60
2018-11-29T01:52:44.086Z,1.60
2018-11-29T01:55:12.611Z,1.60
2018-11-29T01:57:41.127Z,1.60
2018-11-29T02:00:16.959Z,1.60
2018-11-29T02:02:46.945Z,1.60
2018-11-29T02:05:15.542Z,1.70
2018-11-29T02:07:44.171Z,1.70
2018-11-29T02:10:19.321Z,1.70
2018-11-29T02:12:47.949Z,1.70
2018-11-29T02:15:16.615Z,1.80
2018-11-29T02:17:45.379Z,1.80
2018-11-29T02:20:17.879Z,1.80
2018-11-29T02:22:47.103Z,1.80
2018-11-29T02:25:15.732Z,1.80
2018-11-29T02:27:44.255Z,1.80
2018-11-29T02:30:18.530Z,1.80
2018-11-29T02:32:47.745Z,1.80
2018-11-29T02:35:16.359Z,1.80
2018-11-29T02:37:44.927Z,1.80
2018-11-29T02:40:14.817Z,1.80
2018-11-29T02:42:43.952Z,1.80
2018-11-29T02:45:16.766Z,1.80
2018-11-29T02:47:45.430Z,1.80
2018-11-29T02:50:14.631Z,1.80
2018-11-29T02:52:43.213Z,1.80
2018-11-29T02:55:12.707Z,1.80
2018-11-29T02:57:41.891Z,1.80
2018-11-29T03:00:15.815Z,1.80
2018-11-29T03:02:44.362Z,1.80
2018-11-29T03:05:13.134Z,1.80
2018-11-29T03:07:41.703Z,1.80
2018-11-29T03:10:11.387Z,1.90
2018-11-29T03:12:40.069Z,1.80
2018-11-29T03:15:12.034Z,1.90
2018-11-29T03:17:40.982Z,1.90
2018-11-29T03:20:10.774Z,1.90
2018-11-29T03:22:39.471Z,1.90
2018-11-29T03:25:10.536Z,1.90
2018-11-29T03:27:39.069Z,1.90
2018-11-29T03:30:10.523Z,1.90
2018-11-29T03:32:39.074Z,1.90
2018-11-29T03:35:08.447Z,1.90
2018-11-29T03:37:37.010Z,1.90
2018-11-29T03:40:09.511Z,1.90
2018-11-29T03:42:38.251Z,1.80
2018-11-29T03:45:08.699Z,1.80
2018-11-29T03:47:37.676Z,1.80
2018-11-29T03:50:11.927Z,1.80
2018-11-29T03:52:40.505Z,1.80
2018-11-29T03:55:10.019Z,1.80
2018-11-29T03:57:39.259Z,1.90
2018-11-29T04:00:12.164Z,1.80
2018-11-29T04:02:40.767Z,1.80
2018-11-29T04:05:09.297Z,1.90
2018-11-29T04:07:37.942Z,1.90
2018-11-29T04:10:08.552Z,1.90
2018-11-29T04:12:37.100Z,1.90
2018-11-29T04:15:06.862Z,2.00
2018-11-29T04:17:40.652Z,2.00
2018-11-29T04:20:04.771Z,2.00
2018-11-29T04:22:33.323Z,2.00
2018-11-29T04:25:01.893Z,1.90
2018-11-29T04:27:30.451Z,1.90
2018-11-29T04:29:58.975Z,1.90
2018-11-29T04:32:27.526Z,2.00
2018-11-29T04:34:56.100Z,2.00
2018-11-29T04:37:24.603Z,2.00
2018-11-29T04:39:53.125Z,2.00
2018-11-29T04:42:21.703Z,2.00
2018-11-29T04:44:50.237Z,2.00
2018-11-29T04:47:18.903Z,2.00
2018-11-29T04:49:47.461Z,2.00
2018-11-29T04:52:15.997Z,2.00
2018-11-29T04:54:44.534Z,2.00
2018-11-29T04:57:13.044Z,2.00
2018-11-29T04:59:41.592Z,2.00
2018-11-29T05:02:11.819Z,2.00
2018-11-29T05:04:38.687Z,2.00
2018-11-29T05:07:07.202Z,2.00
2018-11-29T05:09:35.710Z,2.00
2018-11-29T05:12:04.231Z,2.00
2018-11-29T05:14:32.749Z,2.00
2018-11-29T05:17:01.304Z,2.00
2018-11-29T05:19:29.916Z,2.00
2018-11-29T05:21:58.467Z,2.00
2018-11-29T05:24:27.015Z,2.00
2018-11-29T05:26:55.589Z,2.10
2018-11-29T05:29:24.147Z,2.10
2018-11-29T05:31:52.690Z,2.10
2018-11-29T05:34:21.213Z,2.10
2018-11-29T05:36:49.799Z,2.10
2018-11-29T05:39:18.319Z,2.10
2018-11-29T05:41:46.832Z,2.10
2018-11-29T05:44:15.356Z,2.10
2018-11-29T05:46:43.891Z,2.10
2018-11-29T05:49:12.471Z,2.10
2018-11-29T05:51:40.958Z,2.10
2018-11-29T05:54:09.470Z,2.10
2018-11-29T05:56:38.196Z,2.10
2018-11-29T05:59:07.189Z,2.10
2018-11-29T06:01:37.984Z,2.10
2018-11-29T06:04:06.623Z,2.10
2018-11-29T06:06:35.237Z,2.10
2018-11-29T06:09:05.469Z,2.20
2018-11-29T06:11:34.038Z,2.20
2018-11-29T06:14:02.565Z,2.20
2018-11-29T06:16:31.087Z,2.20
2018-11-29T06:18:59.594Z,2.20
2018-11-29T06:21:28.140Z,2.20
2018-11-29T06:23:56.708Z,2.20
2018-11-29T06:26:25.241Z,2.30
2018-11-29T06:28:53.821Z,2.30
2018-11-29T06:31:22.397Z,2.30
2018-11-29T06:33:51.650Z,2.30
2018-11-29T06:36:20.163Z,2.30
2018-11-29T06:38:48.727Z,2.30
2018-11-29T06:41:17.268Z,2.30
2018-11-29T06:43:45.812Z,2.30
2018-11-29T06:46:14.334Z,2.30
2018-11-29T06:48:42.862Z,2.30
2018-11-29T06:51:11.377Z,2.30
2018-11-29T06:53:45.306Z,2.30
2018-11-29T06:56:13.880Z,2.30
2018-11-29T06:58:42.633Z,2.30
2018-11-29T07:01:11.131Z,2.30
2018-11-29T07:03:39.679Z,2.30
2018-11-29T07:06:08.218Z,2.40
2018-11-29T07:08:36.863Z,2.30
2018-11-29T07:11:05.402Z,2.30
2018-11-29T07:13:34.020Z,2.30
2018-11-29T07:16:02.544Z,2.30
2018-11-29T07:18:31.054Z,2.30
2018-11-29T07:21:10.979Z,2.40
2018-11-29T07:23:39.527Z,2.40
2018-11-29T07:26:08.219Z,2.30
2018-11-29T07:28:36.771Z,2.30
2018-11-29T07:31:05.910Z,2.30
2018-11-29T07:33:34.437Z,2.30
2018-11-29T07:36:02.976Z,2.30
2018-11-29T07:38:31.537Z,2.30
2018-11-29T07:41:00.074Z,2.30
2018-11-29T07:43:28.591Z,2.30
2018-11-29T07:45:57.155Z,2.30
2018-11-29T07:48:25.712Z,2.30
2018-11-29T07:50:54.308Z,2.30
2018-11-29T07:53:22.848Z,2.30
2018-11-29T07:55:51.532Z,2.30
2018-11-29T07:58:20.164Z,2.30
2018-11-29T08:00:48.753Z,2.20
2018-11-29T08:03:17.277Z,2.20
2018-11-29T08:05:45.832Z,2.20
2018-11-29T08:08:14.380Z,2.20
2018-11-29T08:10:42.959Z,2.10
2018-11-29T08:13:11.492Z,2.10
2018-11-29T08:15:40.118Z,2.00
2018-11-29T08:18:08.819Z,2.00
2018-11-29T08:20:37.351Z,2.00
2018-11-29T08:23:06.125Z,2.00
2018-11-29T08:25:34.784Z,1.90
2018-11-29T08:28:03.410Z,1.90
2018-11-29T08:30:32.055Z,1.90
2018-11-29T08:33:00.636Z,1.90
2018-11-29T08:35:29.164Z,1.80
2018-11-29T08:37:57.703Z,1.90
2018-11-29T08:40:26.255Z,1.90
2018-11-29T08:42:54.791Z,1.90
2018-11-29T08:45:23.438Z,1.90
2018-11-29T08:47:52.079Z,1.90
2018-11-29T08:50:20.605Z,1.90
2018-11-29T08:52:49.240Z,1.90
2018-11-29T08:55:18.880Z,2.00
2018-11-29T08:57:48.481Z,2.00
2018-11-29T09:00:19.080Z,2.00
2018-11-29T09:02:47.671Z,2.00
2018-11-29T09:05:16.298Z,2.00
2018-11-29T09:07:46.166Z,2.00
2018-11-29T09:10:16.141Z,2.00
2018-11-29T09:12:44.675Z,2.00
2018-11-29T09:15:15.570Z,2.00
2018-11-29T09:17:44.087Z,2.00
2018-11-29T09:20:15.044Z,2.00
2018-11-29T09:22:43.575Z,2.00
2018-11-29T09:25:20.074Z,2.00
2018-11-29T09:27:48.623Z,2.00
2018-11-29T09:30:18.375Z,2.00
2018-11-29T09:32:47.800Z,1.90
2018-11-29T09:35:16.651Z,1.90
2018-11-29T09:37:46.059Z,1.80
2018-11-29T09:40:15.703Z,1.80
2018-11-29T09:42:44.846Z,1.80
2018-11-29T09:45:19.442Z,1.80
2018-11-29T09:47:49.323Z,1.80
2018-11-29T09:50:18.449Z,1.70
2018-11-29T09:52:46.992Z,1.70
2018-11-29T09:55:16.590Z,1.70
2018-11-29T09:57:45.891Z,1.70
2018-11-29T10:00:28.772Z,1.70
2018-11-29T10:03:05.208Z,1.70
2018-11-29T10:05:34.016Z,1.70
2018-11-29T10:08:02.559Z,1.70
2018-11-29T10:10:31.213Z,1.70
2018-11-29T10:12:59.721Z,1.70
2018-11-29T10:15:28.280Z,1.70
2018-11-29T10:17:56.830Z,1.70
2018-11-29T10:20:25.359Z,1.70
2018-11-29T10:22:53.926Z,1.70
2018-11-29T10:25:22.510Z,1.70
2018-11-29T10:27:56.142Z,1.60
2018-11-29T10:30:29.559Z,1.50
2018-11-29T10:32:58.081Z,1.50
2018-11-29T10:35:26.707Z,1.40
2018-11-29T10:37:55.257Z,1.40
2018-11-29T10:40:23.908Z,1.40
2018-11-29T10:42:52.550Z,1.40
2018-11-29T10:45:21.409Z,1.40
2018-11-29T10:47:52.489Z,1.40
2018-11-29T10:50:20.138Z,1.40
2018-11-29T10:52:48.723Z,1.40
2018-11-29T10:55:18.243Z,1.40
2018-11-29T10:57:46.827Z,1.40
2018-11-29T11:00:24.028Z,1.40
2018-11-29T11:02:58.912Z,1.30
2018-11-29T11:05:27.855Z,1.30
2018-11-29T11:07:56.348Z,1.20
2018-11-29T11:10:24.907Z,1.20
2018-11-29T11:12:53.444Z,1.20
2018-11-29T11:15:22.018Z,1.20
2018-11-29T11:17:50.691Z,1.20
2018-11-29T11:20:19.269Z,1.20
2018-11-29T11:22:47.813Z,1.30
2018-11-29T11:25:16.377Z,1.30
2018-11-29T11:27:44.971Z,1.30
2018-11-29T11:30:16.829Z,1.30
2018-11-29T11:32:46.603Z,1.30
2018-11-29T11:35:15.169Z,1.30
2018-11-29T11:37:43.710Z,1.30
2018-11-29T11:40:13.610Z,1.30
2018-11-29T11:42:42.170Z,1.30
2018-11-29T11:45:12.362Z,1.30
2018-11-29T11:47:40.920Z,1.30
2018-11-29T11:50:15.748Z,1.30
2018-11-29T11:52:44.324Z,1.30
2018-11-29T11:55:18.952Z,1.30
2018-11-29T11:57:42.663Z,1.30
2018-11-29T12:00:19.340Z,1.40
2018-11-29T12:02:49.179Z,1.40
2018-11-29T12:05:17.982Z,1.40
2018-11-29T12:07:46.532Z,1.40
2018-11-29T12:10:16.120Z,1.40
2018-11-29T12:12:44.630Z,1.40
2018-11-29T12:15:14.382Z,1.40
2018-11-29T12:17:44.047Z,1.40
2018-11-29T12:20:17.811Z,1.40
2018-11-29T12:22:46.444Z,1.40
2018-11-29T12:25:19.090Z,1.50
2018-11-29T12:27:47.661Z,1.50
2018-11-29T12:30:33.267Z,1.50
2018-11-29T12:33:04.205Z,1.50
2018-11-29T12:35:33.052Z,1.40
2018-11-29T12:38:01.576Z,1.40
2018-11-29T12:40:30.260Z,1.40
2018-11-29T12:42:58.804Z,1.40
2018-11-29T12:45:27.336Z,1.40
2018-11-29T12:47:55.858Z,1.40
2018-11-29T12:50:25.439Z,1.30
2018-11-29T12:52:54.023Z,1.30
2018-11-29T12:55:24.823Z,1.30
2018-11-29T12:58:05.092Z,1.30
2018-11-29T13:00:23.596Z,1.30
2018-11-29T13:02:55.171Z,1.30
2018-11-29T13:05:24.000Z,1.30
2018-11-29T13:07:52.578Z,1.20
2018-11-29T13:10:22.255Z,1.20
2018-11-29T13:12:51.004Z,1.20
2018-11-29T13:15:22.875Z,1.20
2018-11-29T13:17:51.396Z,1.20
2018-11-29T13:20:20.012Z,1.30
2018-11-29T13:22:48.584Z,1.30
2018-11-29T13:25:18.334Z,1.30
2018-11-29T13:27:47.095Z,1.30
2018-11-29T13:30:17.731Z,1.30
2018-11-29T13:32:46.845Z,1.30
2018-11-29T13:35:21.763Z,1.40
2018-11-29T13:37:52.668Z,1.40
2018-11-29T13:40:21.191Z,1.40
2018-11-29T13:42:49.939Z,1.40
2018-11-29T13:45:18.572Z,1.40
2018-11-29T13:47:47.195Z,1.40
2018-11-29T13:50:16.910Z,1.40
2018-11-29T13:52:45.833Z,1.40
2018-11-29T13:55:15.159Z,1.50
2018-11-29T13:57:45.982Z,1.50
2018-11-29T14:00:19.667Z,1.50
2018-11-29T14:02:51.449Z,1.50
2018-11-29T14:05:20.099Z,1.50
2018-11-29T14:07:48.730Z,1.50
2018-11-29T14:10:24.591Z,1.50
2018-11-29T14:12:59.714Z,1.50
2018-11-29T14:15:29.427Z,1.50
2018-11-29T14:17:57.992Z,1.50
2018-11-29T14:20:26.558Z,1.50
2018-11-29T14:22:55.075Z,1.50
2018-11-29T14:25:23.592Z,1.50
2018-11-29T14:27:54.351Z,1.50
2018-11-29T14:30:25.156Z,1.50
2018-11-29T14:32:54.865Z,1.50
2018-11-29T14:35:23.707Z,1.50
2018-11-29T14:37:52.246Z,1.50
2018-11-29T14:40:22.087Z,1.50
2018-11-29T14:42:50.647Z,1.50
2018-11-29T14:45:20.346Z,1.50
2018-11-29T14:47:48.862Z,1.50
2018-11-29T14:50:29.032Z,1.50
2018-11-29T14:52:57.597Z,1.40
2018-11-29T14:55:26.340Z,1.40
2018-11-29T14:57:54.923Z,1.40
2018-11-29T15:00:23.478Z,1.40
2018-11-29T15:02:52.083Z,1.50
2018-11-29T15:05:25.781Z,1.50
2018-11-29T15:07:54.413Z,1.50
2018-11-29T15:10:22.957Z,1.50
2018-11-29T15:12:51.518Z,1.50
2018-11-29T15:15:20.108Z,1.50
2018-11-29T15:17:49.778Z,1.50
2018-11-29T15:20:28.106Z,1.50
2018-11-29T15:22:56.751Z,1.50
2018-11-29T15:25:25.435Z,1.50
2018-11-29T15:27:53.978Z,1.50
2018-11-29T15:30:23.385Z,1.60
2018-11-29T15:32:51.923Z,1.60
2018-11-29T15:35:20.452Z,1.60
2018-11-29T15:37:48.978Z,1.60
2018-11-29T15:40:18.282Z,1.60
2018-11-29T15:42:47.248Z,1.60
2018-11-29T15:45:18.039Z,1.70
2018-11-29T15:47:46.774Z,1.70
2018-11-29T15:50:16.101Z,1.70
2018-11-29T15:52:44.751Z,1.70
2018-11-29T15:55:17.640Z,1.70
2018-11-29T15:57:48.253Z,1.70
2018-11-29T16:00:27.845Z,1.80
2018-11-29T16:02:57.812Z,1.80
2018-11-29T16:05:26.530Z,1.80
2018-11-29T16:07:55.131Z,1.80
2018-11-29T16:10:24.980Z,1.80
2018-11-29T16:12:53.516Z,1.80
2018-11-29T16:15:22.492Z,1.80
2018-11-29T16:17:51.999Z,1.90
2018-11-29T16:20:25.670Z,1.90
2018-11-29T16:22:54.309Z,1.90
2018-11-29T16:25:23.014Z,1.90
2018-11-29T16:27:51.577Z,1.90
2018-11-29T16:30:54.810Z,1.90
2018-11-29T16:33:25.131Z,1.90
2018-11-29T16:36:00.443Z,1.90
2018-11-29T16:38:29.046Z,1.90
2018-11-29T16:40:57.619Z,1.90
2018-11-29T16:43:26.164Z,1.90
2018-11-29T16:45:54.887Z,1.90
2018-11-29T16:48:23.486Z,1.90
2018-11-29T16:50:52.029Z,1.90
2018-11-29T16:53:20.602Z,2.00
2018-11-29T16:55:49.151Z,2.00
2018-11-29T16:58:20.625Z,2.00
2018-11-29T17:00:49.191Z,2.00
2018-11-29T17:03:17.710Z,2.00
2018-11-29T17:05:46.407Z,2.10
2018-11-29T17:08:14.960Z,2.00
2018-11-29T17:10:43.584Z,2.00
2018-11-29T17:13:14.180Z,2.00
2018-11-29T17:15:42.878Z,2.00
2018-11-29T17:18:11.445Z,2.00
2018-11-29T17:20:39.999Z,2.00
2018-11-29T17:23:10.026Z,2.00
2018-11-29T17:25:38.640Z,2.00
2018-11-29T17:28:08.037Z,2.10
2018-11-29T17:30:37.402Z,2.10
2018-11-29T17:33:07.300Z,2.10
2018-11-29T17:35:36.261Z,2.10
2018-11-29T17:38:05.516Z,2.10
2018-11-29T17:40:34.619Z,2.10
2018-11-29T17:43:03.260Z,2.10
2018-11-29T17:45:32.111Z,2.10
2018-11-29T17:48:03.440Z,2.10
2018-11-29T17:50:33.612Z,2.10
2018-11-29T17:53:02.228Z,2.10
2018-11-29T17:55:30.792Z,2.10
2018-11-29T17:57:59.359Z,2.10
2018-11-29T18:00:31.839Z,2.20
2018-11-29T18:03:00.484Z,2.20
2018-11-29T18:05:29.013Z,2.10
2018-11-29T18:07:57.567Z,2.20
2018-11-29T18:10:27.755Z,2.20
2018-11-29T18:13:04.419Z,2.20
2018-11-29T18:15:34.652Z,2.20
2018-11-29T18:18:03.215Z,2.20
2018-11-29T18:20:31.755Z,2.20
2018-11-29T18:23:00.285Z,2.20
2018-11-29T18:25:28.883Z,2.20
2018-11-29T18:27:57.454Z,2.30
2018-11-29T18:30:26.016Z,2.30
2018-11-29T18:32:54.551Z,2.30
2018-11-29T18:35:23.980Z,2.30
2018-11-29T18:37:52.562Z,2.30
2018-11-29T18:40:22.137Z,2.30
2018-11-29T18:42:58.828Z,2.30
2018-11-29T18:45:27.823Z,2.30
2018-11-29T18:47:56.606Z,2.30
2018-11-29T18:50:26.435Z,2.30
2018-11-29T18:52:55.121Z,2.40
2018-11-29T18:55:27.124Z,2.40
2018-11-29T18:57:57.788Z,2.40
2018-11-29T19:00:29.660Z,2.40
2018-11-29T19:02:58.246Z,2.40
2018-11-29T19:05:27.152Z,2.40
2018-11-29T19:07:55.708Z,2.50
2018-11-29T19:10:24.409Z,2.50
2018-11-29T19:13:00.234Z,2.50
2018-11-29T19:15:28.943Z,2.50
2018-11-29T19:17:57.548Z,2.50
2018-11-29T19:20:26.284Z,2.50
2018-11-29T19:22:54.920Z,2.60
2018-11-29T19:25:23.417Z,2.60
2018-11-29T19:27:52.002Z,2.60
2018-11-29T19:30:26.295Z,2.70
2018-11-29T19:33:04.550Z,2.70
2018-11-29T19:35:33.338Z,2.70
2018-11-29T19:38:02.005Z,2.80
2018-11-29T19:40:30.640Z,2.80
2018-11-29T19:42:59.220Z,2.80
2018-11-29T19:45:27.955Z,2.80
2018-11-29T19:47:56.523Z,2.80
2018-11-29T19:50:25.085Z,2.80
2018-11-29T19:52:56.143Z,2.80
2018-11-29T19:55:28.207Z,2.80
2018-11-29T19:57:56.834Z,2.80
2018-11-29T20:00:25.616Z,2.80
2018-11-29T20:02:55.440Z,2.80
2018-11-29T20:05:24.036Z,2.80
2018-11-29T20:07:52.730Z,2.80
2018-11-29T20:10:21.280Z,2.80
2018-11-29T20:12:56.884Z,2.80
2018-11-29T20:15:25.846Z,2.80
2018-11-29T20:17:54.411Z,2.80
2018-11-29T20:20:23.022Z,2.80
2018-11-29T20:22:51.544Z,2.90
2018-11-29T20:25:21.380Z,2.90
2018-11-29T20:27:49.985Z,2.90
2018-11-29T20:30:20.604Z,2.90
2018-11-29T20:32:50.167Z,2.90
2018-11-29T20:35:19.414Z,2.90
2018-11-29T20:37:48.923Z,2.90
2018-11-29T20:40:18.659Z,2.90
2018-11-29T20:42:48.529Z,2.90
2018-11-29T20:45:26.703Z,2.90
2018-11-29T20:47:55.285Z,2.90
2018-11-29T20:50:25.590Z,2.90
2018-11-29T20:52:55.494Z,2.90
2018-11-29T20:55:26.696Z,2.80
2018-11-29T20:57:55.337Z,2.80
2018-11-29T21:00:23.966Z,2.80
2018-11-29T21:02:52.571Z,2.80
2018-11-29T21:05:22.196Z,2.80
2018-11-29T21:07:54.372Z,2.80
2018-11-29T21:10:24.257Z,2.70
2018-11-29T21:12:53.074Z,2.70
2018-11-29T21:15:22.064Z,2.70
2018-11-29T21:17:50.775Z,2.70
2018-11-29T21:20:20.611Z,2.70
2018-11-29T21:22:50.340Z,2.60
2018-11-29T21:25:21.591Z,2.60
2018-11-29T21:27:50.159Z,2.60
2018-11-29T21:30:18.850Z,2.60
2018-11-29T21:32:47.948Z,2.50
2018-11-29T21:35:18.766Z,2.50
2018-11-29T21:37:47.297Z,2.50
2018-11-29T21:40:30.617Z,2.50
2018-11-29T21:42:59.207Z,2.50
2018-11-29T21:45:28.058Z,2.40
2018-11-29T21:47:56.652Z,2.40
2018-11-29T21:50:25.263Z,2.40
2018-11-29T21:52:53.835Z,2.40
2018-11-29T21:55:22.453Z,2.40
2018-11-29T21:57:51.121Z,2.40
2018-11-29T22:00:21.037Z,2.40
2018-11-29T22:02:55.155Z,2.30
2018-11-29T22:05:24.000Z,2.30
2018-11-29T22:07:52.593Z,2.30
2018-11-29T22:10:21.258Z,2.30
2018-11-29T22:12:49.907Z,2.30
2018-11-29T22:15:18.515Z,2.30
2018-11-29T22:18:19.955Z,2.30
2018-11-29T22:20:52.809Z,2.30
2018-11-29T22:23:21.478Z,2.30
2018-11-29T22:25:50.358Z,2.30
2018-11-29T22:28:18.980Z,2.20
2018-11-29T22:30:47.676Z,2.20
2018-11-29T22:33:16.246Z,2.20
2018-11-29T22:35:44.861Z,2.20
2018-11-29T22:38:13.429Z,2.20
2018-11-29T22:40:42.243Z,2.20
2018-11-29T22:43:10.876Z,2.10
2018-11-29T22:45:39.454Z,2.10
2018-11-29T22:48:08.116Z,2.10
2018-11-29T22:50:36.656Z,2.10
2018-11-29T22:53:05.861Z,2.10
2018-11-29T22:55:34.365Z,2.10
2018-11-29T22:58:03.096Z,2.10
2018-11-29T23:00:37.007Z,2.20
2018-11-29T23:03:05.648Z,2.20
2018-11-29T23:05:34.261Z,2.10
2018-11-29T23:08:02.829Z,2.20
2018-11-29T23:10:31.418Z,2.20
2018-11-29T23:13:00.062Z,2.20
2018-11-29T23:15:28.610Z,2.10
2018-11-29T23:17:57.150Z,2.10
2018-11-29T23:20:25.704Z,2.20
2018-11-29T23:22:54.253Z,2.20
2018-11-29T23:25:22.832Z,2.20
2018-11-29T23:27:51.419Z,2.10
2018-11-29T23:30:19.927Z,2.20
2018-11-29T23:32:48.449Z,2.20
2018-11-29T23:35:16.975Z,2.20
2018-11-29T23:37:45.560Z,2.20
2018-11-29T23:40:17.486Z,2.20
2018-11-29T23:42:46.699Z,2.20
2018-11-29T23:45:15.393Z,2.20
2018-11-29T23:47:44.106Z,2.20
2018-11-29T23:50:18.498Z,2.20
2018-11-29T23:52:47.452Z,2.20
2018-11-29T23:55:18.543Z,2.20
2018-11-29T23:57:47.087Z,2.20
